Time;durP1;ratioP1;P1;durP2;ratioP2;P2;SDS_P1;SDS_P2;PMS_P1;PMS_P2;Temp;Humidity;BMP_temperature;BMP_pressure;BME280_temperature;BME280_humidity;BME280_pressure;Samples;Min_cycle;Max_cycle;Signal;HPM_P1;HPM_P2
2023/05/27 00:02:22;;;;;;;8.85;2.75;;;11.00;95.70;;;;;;4968857;28;20440;-65
2023/05/27 00:04:48;;;;;;;9.75;3.33;;;10.90;95.90;;;;;;4985140;28;20039;-66
2023/05/27 00:07:14;;;;;;;13.13;3.25;;;10.90;96.00;;;;;;4985128;28;20030;-65
2023/05/27 00:09:39;;;;;;;8.98;2.75;;;10.90;96.20;;;;;;4987324;28;20471;-64
2023/05/27 00:12:05;;;;;;;7.03;3.42;;;10.90;96.30;;;;;;4985260;28;20041;-65
2023/05/27 00:14:31;;;;;;;9.93;2.60;;;10.80;96.40;;;;;;4985165;28;20133;-64
2023/05/27 00:16:57;;;;;;;12.70;3.30;;;10.80;96.50;;;;;;4984975;28;20045;-65
2023/05/27 00:19:24;;;;;;;11.70;3.08;;;10.80;96.60;;;;;;4984171;28;20093;-65
2023/05/27 00:21:52;;;;;;;10.77;2.78;;;10.80;96.60;;;;;;4984831;28;20037;-65
2023/05/27 00:24:18;;;;;;;8.07;3.13;;;10.80;96.60;;;;;;4984706;28;20053;-64
2023/05/27 00:26:45;;;;;;;14.05;3.45;;;10.70;96.70;;;;;;4985121;28;20045;-66
2023/05/27 00:29:11;;;;;;;8.48;3.17;;;10.70;96.60;;;;;;4984273;28;20031;-65
2023/05/27 00:31:36;;;;;;;10.43;2.88;;;10.70;96.60;;;;;;4984726;28;20045;-66
2023/05/27 00:34:02;;;;;;;7.57;2.78;;;10.70;96.80;;;;;;4966733;28;20464;-67
2023/05/27 00:36:29;;;;;;;9.75;3.58;;;10.60;96.90;;;;;;4983914;28;20494;-67
2023/05/27 00:38:54;;;;;;;12.57;3.35;;;10.60;97.00;;;;;;4984005;28;20042;-65
2023/05/27 00:41:21;;;;;;;9.85;3.10;;;10.60;97.20;;;;;;4966148;28;20038;-65
2023/05/27 00:43:46;;;;;;;18.08;3.67;;;10.50;97.30;;;;;;4966820;28;20034;-64
2023/05/27 00:46:12;;;;;;;11.55;3.05;;;10.50;97.50;;;;;;4967580;28;20057;-63
2023/05/27 00:48:38;;;;;;;11.52;3.35;;;10.50;97.50;;;;;;4989631;28;20030;-64
2023/05/27 00:51:05;;;;;;;6.18;2.70;;;10.50;97.60;;;;;;4989464;28;20034;-67
2023/05/27 00:53:38;;;;;;;9.80;2.85;;;10.50;97.70;;;;;;4989381;28;20038;-65
2023/05/27 00:56:05;;;;;;;7.05;2.58;;;10.40;97.60;;;;;;4990129;28;20035;-65
2023/05/27 00:58:31;;;;;;;12.18;3.53;;;10.40;97.70;;;;;;4989051;28;20039;-65
2023/05/27 01:00:58;;;;;;;10.63;3.63;;;10.40;97.80;;;;;;4990181;28;20739;-64
2023/05/27 01:03:24;;;;;;;9.48;3.15;;;10.40;97.80;;;;;;4991015;28;20065;-65
2023/05/27 01:05:57;;;;;;;11.27;3.08;;;10.40;97.90;;;;;;4972191;28;20058;-64
2023/05/27 01:08:28;;;;;;;8.70;3.25;;;10.30;98.10;;;;;;4986474;28;20038;-65
2023/05/27 01:10:55;;;;;;;13.88;3.25;;;10.30;98.10;;;;;;4971330;28;20428;-64
2023/05/27 01:13:45;;;;;;;5.55;2.40;;;10.30;98.30;;;;;;4969884;28;20058;-66
2023/05/27 01:16:13;;;;;;;9.32;3.13;;;10.20;98.40;;;;;;4987058;28;20046;-66
2023/05/27 01:18:43;;;;;;;8.00;2.50;;;10.20;98.40;;;;;;4987954;28;20058;-64
2023/05/27 01:21:14;;;;;;;10.38;2.63;;;10.20;98.50;;;;;;4987214;28;20026;-67
2023/05/27 01:23:44;;;;;;;10.93;3.33;;;10.20;98.40;;;;;;4990012;28;20030;-64
2023/05/27 01:26:10;;;;;;;8.10;3.45;;;10.10;98.40;;;;;;4970589;28;20034;-66
2023/05/27 01:28:36;;;;;;;11.93;3.00;;;10.10;98.50;;;;;;4977346;28;20092;-66
2023/05/27 01:31:17;;;;;;;6.25;3.05;;;10.10;98.60;;;;;;5004862;28;20436;-66
2023/05/27 01:33:49;;;;;;;8.82;3.25;;;10.00;98.60;;;;;;5003554;28;20045;-67
2023/05/27 01:36:22;;;;;;;8.43;3.60;;;10.00;98.60;;;;;;4986271;28;20033;-65
2023/05/27 01:38:49;;;;;;;7.35;2.80;;;10.00;98.40;;;;;;5004928;28;20038;-66
2023/05/27 01:41:17;;;;;;;9.60;2.92;;;10.00;98.40;;;;;;4988941;28;20034;-65
2023/05/27 01:43:44;;;;;;;10.20;2.90;;;9.90;98.50;;;;;;5007348;28;20095;-67
2023/05/27 01:46:10;;;;;;;7.78;2.95;;;9.90;99.00;;;;;;4995937;28;20054;-66
2023/05/27 01:48:37;;;;;;;7.40;2.60;;;9.80;99.20;;;;;;4985545;28;20030;-66
2023/05/27 01:51:02;;;;;;;8.93;3.38;;;9.90;99.00;;;;;;4985878;28;20048;-65
2023/05/27 01:53:28;;;;;;;9.43;3.42;;;9.90;98.70;;;;;;4987382;28;20070;-66
2023/05/27 01:55:54;;;;;;;10.10;3.47;;;9.90;98.50;;;;;;4986122;28;20053;-66
2023/05/27 01:58:20;;;;;;;9.60;2.88;;;9.80;98.30;;;;;;4985379;28;20058;-67
2023/05/27 02:00:46;;;;;;;6.45;2.92;;;9.80;98.40;;;;;;5001680;28;20060;-66
2023/05/27 02:03:12;;;;;;;9.27;3.38;;;9.80;98.50;;;;;;4984232;28;21042;-66
2023/05/27 02:05:38;;;;;;;9.65;3.25;;;9.70;98.80;;;;;;4985493;28;20573;-66
2023/05/27 02:08:03;;;;;;;7.03;2.58;;;9.70;99.00;;;;;;5003909;28;20141;-67
2023/05/27 02:10:29;;;;;;;5.65;2.60;;;9.70;99.10;;;;;;5002719;28;20115;-66
2023/05/27 02:12:55;;;;;;;7.25;3.15;;;9.60;99.30;;;;;;5005321;28;20054;-65
2023/05/27 02:15:23;;;;;;;9.27;3.25;;;9.70;99.50;;;;;;4982168;28;20471;-66
2023/05/27 02:17:55;;;;;;;10.02;3.55;;;9.60;99.60;;;;;;4971179;28;20037;-66
2023/05/27 02:20:22;;;;;;;13.85;3.92;;;9.60;99.60;;;;;;4971617;28;20081;-65
2023/05/27 02:22:49;;;;;;;10.35;3.28;;;9.60;99.60;;;;;;4988360;28;20517;-66
2023/05/27 02:25:15;;;;;;;7.30;3.28;;;9.60;99.70;;;;;;4987621;28;20044;-66
2023/05/27 02:27:43;;;;;;;12.07;3.75;;;9.60;99.90;;;;;;4989250;28;20086;-67
2023/05/27 02:30:10;;;;;;;11.07;3.47;;;9.60;99.90;;;;;;5006608;28;20453;-66
2023/05/27 02:32:36;;;;;;;17.05;3.65;;;9.60;99.90;;;;;;5006012;28;20034;-65
2023/05/27 02:35:02;;;;;;;11.75;3.55;;;9.60;99.90;;;;;;5006230;28;20046;-65
2023/05/27 02:37:28;;;;;;;12.10;3.65;;;9.60;99.90;;;;;;5007550;28;20034;-66
2023/05/27 02:39:55;;;;;;;14.68;3.97;;;9.70;99.90;;;;;;5007731;28;20030;-66
2023/05/27 02:42:21;;;;;;;11.20;3.10;;;9.60;99.90;;;;;;5006112;28;20092;-65
2023/05/27 02:44:47;;;;;;;8.07;3.60;;;9.70;99.90;;;;;;5008230;28;20038;-65
2023/05/27 02:47:13;;;;;;;12.10;3.25;;;9.70;99.90;;;;;;4990077;28;20535;-66
2023/05/27 02:49:39;;;;;;;6.57;3.20;;;9.60;99.90;;;;;;5007076;28;20041;-66
2023/05/27 02:52:05;;;;;;;11.60;3.85;;;9.70;99.90;;;;;;5005713;28;20037;-65
2023/05/27 02:54:31;;;;;;;12.60;3.70;;;9.70;99.90;;;;;;5005855;28;20093;-66
2023/05/27 02:56:56;;;;;;;8.27;3.05;;;9.70;99.90;;;;;;5007464;28;20640;-67
2023/05/27 02:59:22;;;;;;;9.85;3.10;;;9.60;99.90;;;;;;5007454;28;20277;-65
2023/05/27 03:01:48;;;;;;;11.88;3.45;;;9.60;99.90;;;;;;5007900;28;20091;-67
2023/05/27 03:04:16;;;;;;;10.68;3.03;;;9.60;99.90;;;;;;5006430;28;20030;-66
2023/05/27 03:06:42;;;;;;;8.77;2.83;;;9.60;99.90;;;;;;5007789;28;20037;-66
2023/05/27 03:09:09;;;;;;;8.23;3.90;;;9.70;99.90;;;;;;4989663;28;20417;-66
2023/05/27 03:11:35;;;;;;;6.85;2.40;;;9.70;99.90;;;;;;5005744;28;20121;-66
2023/05/27 03:14:01;;;;;;;11.45;3.30;;;9.70;99.90;;;;;;4992061;28;20735;-65
2023/05/27 03:16:27;;;;;;;12.10;3.45;;;9.80;99.90;;;;;;4970588;28;20057;-66
2023/05/27 03:18:53;;;;;;;8.93;3.22;;;9.80;99.90;;;;;;4987800;28;20058;-67
2023/05/27 03:21:18;;;;;;;12.65;3.70;;;9.80;99.90;;;;;;4988489;28;20038;-66
2023/05/27 03:23:45;;;;;;;7.63;3.08;;;9.80;99.90;;;;;;4983295;28;20033;-65
2023/05/27 03:26:11;;;;;;;10.80;4.32;;;9.90;99.90;;;;;;4990797;28;20041;-67
2023/05/27 03:28:38;;;;;;;9.45;2.72;;;9.90;99.90;;;;;;4978977;28;20038;-66
2023/05/27 03:31:04;;;;;;;9.95;3.55;;;9.90;99.90;;;;;;5007284;28;20034;-65
2023/05/27 03:33:42;;;;;;;8.82;3.25;;;9.90;99.90;;;;;;5005725;28;20046;-66
2023/05/27 03:36:08;;;;;;;6.88;2.70;;;9.90;99.90;;;;;;5006035;28;20087;-66
2023/05/27 03:38:34;;;;;;;8.65;3.15;;;9.90;99.90;;;;;;5005319;28;20061;-66
2023/05/27 03:40:59;;;;;;;7.38;3.25;;;9.80;99.90;;;;;;4989633;28;20058;-66
2023/05/27 03:43:27;;;;;;;7.68;2.80;;;9.80;99.60;;;;;;4992648;28;20030;-66
2023/05/27 03:45:53;;;;;;;7.80;2.83;;;9.70;99.40;;;;;;4982290;28;20040;-66
2023/05/27 03:48:19;;;;;;;6.35;2.55;;;9.70;99.40;;;;;;4987052;28;20034;-67
2023/05/27 03:50:44;;;;;;;5.47;2.60;;;9.70;99.60;;;;;;5004645;28;20030;-67
2023/05/27 03:53:10;;;;;;;9.20;2.88;;;9.70;99.90;;;;;;4989169;28;20034;-65
2023/05/27 03:55:36;;;;;;;6.53;3.00;;;9.70;99.90;;;;;;5007848;28;20129;-66
2023/05/27 03:58:02;;;;;;;7.45;2.55;;;9.60;99.90;;;;;;5004990;28;20037;-66
2023/05/27 04:00:28;;;;;;;7.95;2.97;;;9.70;99.90;;;;;;5006473;28;20025;-66
2023/05/27 04:02:55;;;;;;;6.20;3.50;;;9.70;99.90;;;;;;4989665;28;20047;-66
2023/05/27 04:05:22;;;;;;;7.85;3.25;;;9.70;99.90;;;;;;5005962;28;20037;-67
2023/05/27 04:07:47;;;;;;;10.80;3.38;;;9.80;99.90;;;;;;5005946;28;20034;-66
2023/05/27 04:10:13;;;;;;;8.82;3.10;;;9.80;99.90;;;;;;5007362;28;20401;-66
2023/05/27 04:12:41;;;;;;;7.53;3.28;;;9.90;99.90;;;;;;5005001;28;20033;-65
2023/05/27 04:15:08;;;;;;;7.40;2.92;;;9.90;99.90;;;;;;4990125;28;20030;-66
2023/05/27 04:17:33;;;;;;;9.15;3.50;;;10.00;99.90;;;;;;4989436;28;20725;-66
2023/05/27 04:20:00;;;;;;;8.77;3.25;;;10.00;99.90;;;;;;5007445;28;20029;-66
2023/05/27 04:22:26;;;;;;;8.43;3.00;;;10.10;99.90;;;;;;5005921;28;20061;-65
2023/05/27 04:24:53;;;;;;;4.95;3.13;;;10.10;99.90;;;;;;4989898;28;20788;-66
2023/05/27 04:27:19;;;;;;;6.85;3.13;;;10.20;99.90;;;;;;4989810;28;20670;-66
2023/05/27 04:29:45;;;;;;;7.03;3.05;;;10.20;99.90;;;;;;5005790;28;20029;-65
2023/05/27 04:32:12;;;;;;;12.85;3.67;;;10.30;99.90;;;;;;5006119;28;20044;-66
2023/05/27 04:34:44;;;;;;;11.85;3.88;;;10.30;99.90;;;;;;4990024;28;20030;-66
2023/05/27 04:37:10;;;;;;;6.65;2.67;;;10.30;99.90;;;;;;5006370;28;20030;-67
2023/05/27 04:39:40;;;;;;;6.15;3.50;;;10.40;99.90;;;;;;4988543;28;20041;-66
2023/05/27 04:42:06;;;;;;;11.85;3.75;;;10.40;99.90;;;;;;4989297;28;20411;-66
2023/05/27 04:44:32;;;;;;;8.10;3.00;;;10.50;99.90;;;;;;5007078;28;20034;-67
2023/05/27 04:47:00;;;;;;;9.90;3.20;;;10.50;99.90;;;;;;4988465;28;20030;-66
2023/05/27 04:49:26;;;;;;;8.50;3.45;;;10.60;99.90;;;;;;5004279;28;20038;-66
2023/05/27 04:51:54;;;;;;;7.35;3.47;;;10.70;99.90;;;;;;4988335;28;20048;-67
2023/05/27 04:54:21;;;;;;;7.45;3.35;;;10.70;99.90;;;;;;4988634;28;20037;-65
2023/05/27 04:56:47;;;;;;;6.40;3.08;;;10.80;99.90;;;;;;4987252;28;20029;-65
2023/05/27 04:59:21;;;;;;;12.95;3.92;;;10.80;99.90;;;;;;4987968;28;20036;-65
2023/05/27 05:02:21;;;;;;;10.45;3.78;;;10.90;99.90;;;;;;4987861;28;20026;-66
2023/05/27 05:04:45;;;;;;;8.48;3.72;;;11.00;99.90;;;;;;4987045;28;20048;-66
2023/05/27 05:07:13;;;;;;;10.02;3.92;;;11.10;99.90;;;;;;4987618;28;20045;-66
2023/05/27 05:09:40;;;;;;;8.38;3.30;;;11.10;99.90;;;;;;4986672;28;20078;-67
2023/05/27 05:12:12;;;;;;;10.73;4.10;;;11.20;99.90;;;;;;5003254;28;20609;-65
2023/05/27 05:14:41;;;;;;;12.45;3.40;;;11.30;99.90;;;;;;4986741;28;20049;-66
2023/05/27 05:17:08;;;;;;;7.60;3.20;;;11.30;99.90;;;;;;4986267;28;20036;-66
2023/05/27 05:19:34;;;;;;;8.32;4.15;;;11.40;99.90;;;;;;4999452;28;20397;-66
2023/05/27 05:22:00;;;;;;;10.32;3.80;;;11.50;99.90;;;;;;4966610;28;20034;-66
2023/05/27 05:24:27;;;;;;;11.25;4.20;;;11.70;99.90;;;;;;4966834;28;20030;-66
2023/05/27 05:26:53;;;;;;;8.48;3.58;;;11.90;99.90;;;;;;4984141;28;20083;-66
2023/05/27 05:29:19;;;;;;;12.02;3.58;;;11.90;99.90;;;;;;4965864;28;20117;-66
2023/05/27 05:31:45;;;;;;;7.90;3.75;;;12.10;99.90;;;;;;4966960;28;20069;-66
2023/05/27 05:34:12;;;;;;;10.80;3.50;;;12.30;99.90;;;;;;4967174;28;20093;-67
2023/05/27 05:36:38;;;;;;;16.60;4.18;;;12.50;99.90;;;;;;4967168;28;20030;-66
2023/05/27 05:39:06;;;;;;;9.50;3.22;;;12.70;99.90;;;;;;4967676;28;20030;-67
2023/05/27 05:41:34;;;;;;;10.50;3.40;;;12.80;99.90;;;;;;4983834;28;20506;-66
2023/05/27 05:44:01;;;;;;;8.00;3.50;;;12.90;99.50;;;;;;4967169;28;20427;-67
2023/05/27 05:46:26;;;;;;;10.63;3.53;;;13.10;99.40;;;;;;4967836;28;20048;-65
2023/05/27 05:48:53;;;;;;;8.75;3.35;;;13.10;98.90;;;;;;4969682;28;20057;-66
2023/05/27 05:51:27;;;;;;;12.50;3.83;;;13.20;98.50;;;;;;4989177;28;20048;-65
2023/05/27 05:53:57;;;;;;;13.50;4.10;;;13.40;98.10;;;;;;4991274;28;20040;-65
2023/05/27 05:56:25;;;;;;;11.30;3.38;;;13.60;97.80;;;;;;5008104;28;20121;-66
2023/05/27 05:58:52;;;;;;;10.40;3.53;;;13.70;97.60;;;;;;4990318;28;20060;-67
2023/05/27 06:01:19;;;;;;;9.02;3.10;;;13.70;97.50;;;;;;4989222;28;20487;-67
2023/05/27 06:03:46;;;;;;;11.68;3.42;;;13.80;97.80;;;;;;5003224;28;20029;-67
2023/05/27 06:06:26;;;;;;;13.02;3.72;;;13.90;97.40;;;;;;4989017;28;20409;-67
2023/05/27 06:09:08;;;;;;;12.43;3.20;;;13.90;97.30;;;;;;5008668;28;20034;-67
2023/05/27 06:11:34;;;;;;;11.27;3.58;;;14.10;97.20;;;;;;4992379;28;20041;-67
2023/05/27 06:14:00;;;;;;;7.90;2.80;;;14.30;96.60;;;;;;4992153;28;20030;-67
2023/05/27 06:16:26;;;;;;;7.90;2.80;;;14.40;96.60;;;;;;4990329;28;20034;-67
2023/05/27 06:18:51;;;;;;;11.63;3.58;;;14.50;97.10;;;;;;5007239;28;20029;-64
2023/05/27 06:21:17;;;;;;;11.05;3.00;;;14.60;96.40;;;;;;4989169;28;20033;-67
2023/05/27 06:24:16;;;;;;;8.25;2.55;;;14.60;96.40;;;;;;4973828;28;20034;-66
2023/05/27 06:26:44;;;;;;;9.85;3.55;;;14.80;96.60;;;;;;4989312;28;20054;-67
2023/05/27 06:29:10;;;;;;;10.73;3.83;;;14.90;96.20;;;;;;4988902;28;20728;-68
2023/05/27 06:31:37;;;;;;;12.30;3.45;;;15.00;95.60;;;;;;5007459;28;20041;-67
2023/05/27 06:34:03;;;;;;;12.10;3.28;;;15.10;95.20;;;;;;5007504;28;20569;-66
2023/05/27 06:36:31;;;;;;;10.38;3.03;;;15.20;94.70;;;;;;4990202;28;20810;-64
2023/05/27 06:38:57;;;;;;;5.88;2.80;;;15.20;94.40;;;;;;4989117;28;20036;-63
2023/05/27 06:41:23;;;;;;;10.85;4.00;;;15.30;94.30;;;;;;4989670;28;20053;-66
2023/05/27 06:44:09;;;;;;;9.73;3.10;;;15.40;93.50;;;;;;5005399;28;20235;-66
2023/05/27 06:46:48;;;;;;;10.48;3.10;;;15.50;93.40;;;;;;5006325;28;20334;-66
2023/05/27 06:49:23;;;;;;;6.18;2.28;;;15.60;93.40;;;;;;4988926;28;20817;-66
2023/05/27 06:51:49;;;;;;;7.70;2.50;;;15.60;92.60;;;;;;4989102;28;20191;-67
2023/05/27 06:54:15;;;;;;;11.35;2.60;;;15.70;92.20;;;;;;4988915;28;20029;-66
2023/05/27 06:56:43;;;;;;;5.55;2.05;;;15.80;91.10;;;;;;5005361;28;20041;-65
2023/05/27 06:59:29;;;;;;;5.80;2.50;;;15.80;90.90;;;;;;5003798;28;20111;-65
2023/05/27 07:01:58;;;;;;;7.30;1.90;;;15.90;90.80;;;;;;4988553;28;20654;-64
2023/05/27 07:04:24;;;;;;;12.27;2.22;;;15.90;90.70;;;;;;5005156;28;20045;-65
2023/05/27 07:06:56;;;;;;;10.68;3.28;;;16.10;90.60;;;;;;4988742;28;20700;-65
2023/05/27 07:09:22;;;;;;;6.03;1.90;;;16.20;89.40;;;;;;4988350;28;20045;-65
2023/05/27 07:11:48;;;;;;;4.90;1.80;;;16.40;87.00;;;;;;5005171;28;20030;-63
2023/05/27 07:14:33;;;;;;;7.93;2.00;;;16.40;82.90;;;;;;5006394;28;20798;-63
2023/05/27 07:16:58;;;;;;;6.00;2.05;;;16.50;82.70;;;;;;5005387;28;20121;-63
2023/05/27 07:19:24;;;;;;;6.80;1.90;;;16.50;82.50;;;;;;4985859;28;20117;-63
2023/05/27 07:21:56;;;;;;;6.05;1.75;;;16.60;83.10;;;;;;4969183;28;20030;-63
2023/05/27 07:24:24;;;;;;;3.78;1.70;;;16.60;82.00;;;;;;4968954;28;20591;-63
2023/05/27 07:26:51;;;;;;;3.72;1.30;;;16.70;79.30;;;;;;4985901;28;20035;-64
2023/05/27 07:29:19;;;;;;;4.82;1.60;;;16.80;80.10;;;;;;4968579;28;20097;-64
2023/05/27 07:31:54;;;;;;;2.63;1.40;;;16.90;78.50;;;;;;4986860;28;20509;-63
2023/05/27 07:34:24;;;;;;;5.68;1.50;;;17.00;76.40;;;;;;4969345;28;20053;-64
2023/05/27 07:36:51;;;;;;;2.92;1.20;;;17.00;73.60;;;;;;4969203;28;20471;-64
2023/05/27 07:39:16;;;;;;;2.83;0.98;;;17.10;74.10;;;;;;4968780;28;20124;-64
2023/05/27 07:41:42;;;;;;;1.77;0.95;;;17.10;66.70;;;;;;4985184;28;20066;-63
2023/05/27 07:44:08;;;;;;;2.17;1.00;;;17.20;64.80;;;;;;4969028;28;20121;-64
2023/05/27 07:46:37;;;;;;;5.32;1.30;;;17.20;66.30;;;;;;4986699;28;20097;-64
2023/05/27 07:49:03;;;;;;;4.88;1.25;;;17.20;58.80;;;;;;4985664;28;20030;-63
2023/05/27 07:51:31;;;;;;;3.50;1.10;;;17.20;59.70;;;;;;4984436;28;20030;-64
2023/05/27 07:53:57;;;;;;;2.90;1.10;;;17.20;60.20;;;;;;4968933;28;20045;-63
2023/05/27 07:56:25;;;;;;;3.17;1.27;;;17.20;58.40;;;;;;4969193;28;20027;-63
2023/05/27 07:58:51;;;;;;;3.17;1.08;;;17.20;60.30;;;;;;4973663;28;20026;-66
2023/05/27 08:01:18;;;;;;;2.25;0.75;;;17.30;60.90;;;;;;4970734;28;20045;-64
2023/05/27 08:03:49;;;;;;;3.30;0.90;;;17.40;62.40;;;;;;4969326;28;20875;-64
2023/05/27 08:06:42;;;;;;;2.17;0.93;;;17.40;62.40;;;;;;4962932;28;20042;-65
2023/05/27 08:09:43;;;;;;;2.50;0.93;;;17.50;60.40;;;;;;4975643;28;20034;-65
2023/05/27 08:12:41;;;;;;;1.60;0.73;;;17.60;54.40;;;;;;4954623;28;20042;-65
2023/05/27 08:15:15;;;;;;;1.38;0.85;;;17.60;55.00;;;;;;4985104;28;20050;-65
2023/05/27 08:17:59;;;;;;;4.13;1.15;;;17.70;54.20;;;;;;4985587;28;20050;-65
2023/05/27 08:20:41;;;;;;;2.88;0.88;;;17.70;56.10;;;;;;4967367;28;20447;-64
2023/05/27 08:23:42;;;;;;;3.72;1.13;;;17.80;56.20;;;;;;4944866;29;20035;-64
2023/05/27 08:26:29;;;;;;;;;;;18.00;55.50;;;;;;4967272;28;20069;-64
2023/05/27 08:29:07;;;;;;;5.57;1.25;;;18.00;54.90;;;;;;4984414;28;20267;-64
2023/05/27 08:31:53;;;;;;;2.00;0.70;;;18.00;55.50;;;;;;4986937;28;20080;-65
2023/05/27 08:34:19;;;;;;;1.13;0.70;;;18.10;55.80;;;;;;4968990;28;20751;-64
2023/05/27 08:36:45;;;;;;;2.70;1.00;;;18.20;55.10;;;;;;4970714;28;20035;-65
2023/05/27 08:39:12;;;;;;;3.50;1.00;;;18.30;54.30;;;;;;4980395;28;20023;-64
2023/05/27 08:41:48;;;;;;;4.55;1.00;;;18.40;55.20;;;;;;4983256;28;20148;-65
2023/05/27 08:44:14;;;;;;;2.78;0.90;;;18.60;54.50;;;;;;4977534;28;20410;-64
2023/05/27 08:46:41;;;;;;;5.93;0.95;;;18.70;54.00;;;;;;4978052;28;20041;-65
2023/05/27 08:49:07;;;;;;;1.83;1.05;;;18.80;54.80;;;;;;4980350;28;20087;-65
2023/05/27 08:51:40;;;;;;;2.28;1.02;;;18.90;53.60;;;;;;4982093;28;20034;-65
2023/05/27 08:54:07;;;;;;;2.45;1.20;;;19.00;53.80;;;;;;4998548;28;20038;-65
2023/05/27 08:56:34;;;;;;;2.45;0.95;;;19.10;53.00;;;;;;4995312;28;20065;-65
2023/05/27 08:59:02;;;;;;;3.40;1.13;;;19.20;52.20;;;;;;4982722;28;20073;-65
2023/05/27 09:01:30;;;;;;;1.67;0.85;;;19.20;52.80;;;;;;4984407;28;20045;-65
2023/05/27 09:03:56;;;;;;;3.75;0.80;;;19.30;52.90;;;;;;4982861;28;20030;-66
2023/05/27 09:06:23;;;;;;;15.57;7.13;;;19.30;53.00;;;;;;4978677;28;20029;-65
2023/05/27 09:08:49;;;;;;;2.35;1.10;;;19.40;52.80;;;;;;4996773;28;20584;-65
2023/05/27 09:11:26;;;;;;;2.58;1.08;;;19.60;52.70;;;;;;4993544;28;20038;-65
2023/05/27 09:13:57;;;;;;;1.52;0.90;;;19.80;51.00;;;;;;4999987;28;20034;-65
2023/05/27 09:16:23;;;;;;;3.30;1.23;;;19.90;49.70;;;;;;4963056;28;20440;-63
2023/05/27 09:18:49;;;;;;;3.45;1.02;;;20.00;49.50;;;;;;4995157;28;20060;-64
2023/05/27 09:21:16;;;;;;;1.55;1.05;;;20.10;47.00;;;;;;5000522;28;20061;-64
2023/05/27 09:23:41;;;;;;;1.67;0.93;;;20.10;48.30;;;;;;5001268;28;20116;-64
2023/05/27 09:26:12;;;;;;;3.35;1.13;;;20.10;49.30;;;;;;5003135;28;20112;-64
2023/05/27 09:28:39;;;;;;;2.08;0.88;;;20.10;47.70;;;;;;4998869;28;20041;-66
2023/05/27 09:31:07;;;;;;;3.80;1.10;;;20.20;44.90;;;;;;4968782;28;20397;-65
2023/05/27 09:33:34;;;;;;;2.05;0.95;;;20.30;44.60;;;;;;4997921;28;20038;-65
2023/05/27 09:36:02;;;;;;;3.90;1.05;;;20.30;47.40;;;;;;4984213;28;20437;-65
2023/05/27 09:38:32;;;;;;;3.05;1.00;;;20.50;45.00;;;;;;4983964;28;20034;-66
2023/05/27 09:40:58;;;;;;;1.92;0.90;;;20.50;45.10;;;;;;4983188;28;20117;-65
2023/05/27 09:43:28;;;;;;;1.52;0.70;;;20.60;46.80;;;;;;4981598;28;20184;-65
2023/05/27 09:46:02;;;;;;;1.38;1.10;;;20.70;45.10;;;;;;4979116;28;20038;-65
2023/05/27 09:48:33;;;;;;;1.90;1.02;;;20.80;46.00;;;;;;4979293;28;20046;-66
2023/05/27 09:50:59;;;;;;;4.03;1.50;;;20.90;43.50;;;;;;4961950;28;20517;-66
2023/05/27 09:53:30;;;;;;;2.30;1.17;;;21.00;44.90;;;;;;4980329;28;20068;-65
2023/05/27 09:55:57;;;;;;;5.13;1.30;;;21.00;44.60;;;;;;4987830;28;20088;-65
2023/05/27 09:58:24;;;;;;;2.28;1.50;;;21.10;42.10;;;;;;5003852;28;20529;-70
2023/05/27 10:00:50;;;;;;;3.10;1.30;;;21.40;44.70;;;;;;4984549;28;20137;-66
2023/05/27 10:03:20;;;;;;;3.17;1.30;;;21.60;40.00;;;;;;4983463;28;20456;-65
2023/05/27 10:05:48;;;;;;;2.30;0.90;;;21.80;41.80;;;;;;4995765;28;20041;-66
2023/05/27 10:08:14;;;;;;;1.48;0.90;;;21.80;43.30;;;;;;4981654;28;20116;-66
2023/05/27 10:10:40;;;;;;;2.92;1.20;;;22.00;42.50;;;;;;4981595;28;20032;-65
2023/05/27 10:13:06;;;;;;;1.52;1.05;;;22.00;41.50;;;;;;4981799;28;20048;-66
2023/05/27 10:15:33;;;;;;;3.00;0.95;;;21.90;41.10;;;;;;4981856;28;20034;-65
2023/05/27 10:18:09;;;;;;;4.85;1.40;;;21.80;39.70;;;;;;4982072;28;20046;-66
2023/05/27 10:20:42;;;;;;;2.85;1.52;;;21.70;40.90;;;;;;4982243;28;20379;-65
2023/05/27 10:23:27;;;;;;;2.20;1.30;;;21.50;41.50;;;;;;4981646;28;20035;-66
2023/05/27 10:25:55;;;;;;;3.83;0.90;;;21.50;40.80;;;;;;4984929;28;20109;-66
2023/05/27 10:28:27;;;;;;;1.85;1.05;;;21.60;39.20;;;;;;4984754;28;20030;-66
2023/05/27 10:31:03;;;;;;;2.30;1.10;;;21.80;39.20;;;;;;4985017;28;20030;-66
2023/05/27 10:33:35;;;;;;;1.13;0.80;;;21.80;40.10;;;;;;4983380;28;20294;-65
2023/05/27 10:36:11;;;;;;;2.80;1.10;;;22.00;41.10;;;;;;4985878;28;20057;-64
2023/05/27 10:38:38;;;;;;;1.90;1.20;;;22.10;43.60;;;;;;4967264;28;20034;-63
2023/05/27 10:41:07;;;;;;;1.58;1.17;;;22.30;42.60;;;;;;4984545;28;20042;-63
2023/05/27 10:43:33;;;;;;;4.10;1.20;;;22.50;41.40;;;;;;4999288;28;20510;-62
2023/05/27 10:46:09;;;;;;;2.00;1.10;;;22.70;42.20;;;;;;5001513;28;20490;-62
2023/05/27 10:48:38;;;;;;;3.80;1.20;;;22.90;41.20;;;;;;4997159;28;20026;-63
2023/05/27 10:51:06;;;;;;;1.90;1.10;;;23.10;41.90;;;;;;5000772;28;20396;-62
2023/05/27 10:53:34;;;;;;;5.15;1.15;;;23.10;42.40;;;;;;4999994;28;20061;-63
2023/05/27 10:56:00;;;;;;;4.78;1.45;;;23.20;43.20;;;;;;4985209;28;20034;-63
2023/05/27 10:58:27;;;;;;;4.50;2.50;;;23.10;42.80;;;;;;4985199;28;20041;-63
2023/05/27 11:00:54;;;;;;;2.35;1.13;;;23.10;41.60;;;;;;4988092;28;20038;-64
2023/05/27 11:03:24;;;;;;;2.80;1.13;;;22.80;39.70;;;;;;4987028;28;20556;-63
2023/05/27 11:06:01;;;;;;;3.85;1.17;;;22.50;39.30;;;;;;4985451;28;20045;-63
2023/05/27 11:08:27;;;;;;;3.33;1.10;;;22.10;40.00;;;;;;4987352;28;20042;-62
2023/05/27 11:11:05;;;;;;;1.83;1.10;;;21.80;41.00;;;;;;4969851;28;20123;-63
2023/05/27 11:13:42;;;;;;;2.05;1.05;;;21.60;39.50;;;;;;4985394;28;20899;-62
2023/05/27 11:16:08;;;;;;;2.58;1.27;;;21.40;41.70;;;;;;4984001;28;20033;-63
2023/05/27 11:18:38;;;;;;;3.33;1.13;;;21.40;43.70;;;;;;4983920;28;20065;-62
2023/05/27 11:21:05;;;;;;;2.33;1.20;;;21.30;42.90;;;;;;4989243;28;20093;-62
2023/05/27 11:23:57;;;;;;;2.78;1.27;;;21.50;43.50;;;;;;4986987;28;20029;-63
2023/05/27 11:26:23;;;;;;;1.85;1.17;;;21.50;43.20;;;;;;4983957;28;20104;-63
2023/05/27 11:29:07;;;;;;;2.88;1.40;;;21.60;42.40;;;;;;4986850;28;20501;-62
2023/05/27 11:31:33;;;;;;;1.30;0.80;;;21.60;43.20;;;;;;4986697;28;20045;-63
2023/05/27 11:33:59;;;;;;;1.90;1.23;;;21.60;42.20;;;;;;4986860;28;20426;-63
2023/05/27 11:36:30;;;;;;;2.33;1.02;;;21.60;41.50;;;;;;4986977;28;20038;-63
2023/05/27 11:39:00;;;;;;;1.98;1.17;;;21.60;41.80;;;;;;4986240;28;20065;-63
2023/05/27 11:41:30;;;;;;;1.83;1.10;;;21.60;41.90;;;;;;4986694;28;20027;-63
2023/05/27 11:44:01;;;;;;;2.10;1.02;;;21.60;40.40;;;;;;4984414;28;20038;-63
2023/05/27 11:46:38;;;;;;;6.60;1.27;;;21.50;41.40;;;;;;4984198;28;20088;-63
2023/05/27 11:49:06;;;;;;;4.32;1.30;;;21.60;41.80;;;;;;4988103;28;20034;-62
2023/05/27 11:51:37;;;;;;;0.90;0.88;;;21.60;42.60;;;;;;4989821;28;20038;-63
2023/05/27 11:54:03;;;;;;;3.03;1.33;;;21.70;41.30;;;;;;4990425;28;20172;-63
2023/05/27 11:56:29;;;;;;;2.13;1.30;;;21.80;41.20;;;;;;4988790;28;20054;-63
2023/05/27 11:58:56;;;;;;;2.42;1.20;;;21.80;40.90;;;;;;5003384;28;20036;-63
2023/05/27 12:01:22;;;;;;;3.47;1.20;;;21.80;42.00;;;;;;4999695;28;20165;-63
2023/05/27 12:03:48;;;;;;;1.33;0.95;;;21.90;41.30;;;;;;4996260;28;20952;-63
2023/05/27 12:06:15;;;;;;;1.60;1.13;;;21.90;41.80;;;;;;4997610;28;20050;-63
2023/05/27 12:08:44;;;;;;;2.15;1.20;;;21.80;40.70;;;;;;4998877;28;20034;-63
2023/05/27 12:11:10;;;;;;;2.20;1.50;;;21.80;42.30;;;;;;5000364;28;20065;-64
2023/05/27 12:13:36;;;;;;;1.75;1.20;;;22.00;40.90;;;;;;4999608;28;20673;-63
2023/05/27 12:16:06;;;;;;;2.97;1.23;;;22.00;41.00;;;;;;4999653;28;20026;-62
2023/05/27 12:18:38;;;;;;;1.50;1.15;;;22.20;40.20;;;;;;5003480;28;20026;-63
2023/05/27 12:23:40;;;;;;;2.08;1.08;;;21.90;41.00;;;;;;5043172;28;20186;-66
2023/05/27 12:26:06;;;;;;;2.28;1.10;;;21.80;39.80;;;;;;5045325;28;20128;-62
2023/05/27 12:28:31;;;;;;;1.88;0.98;;;21.80;40.90;;;;;;5043069;28;20119;-62
2023/05/27 12:30:57;;;;;;;1.73;1.27;;;21.90;39.10;;;;;;5043916;28;20048;-62
2023/05/27 12:33:23;;;;;;;3.17;1.60;;;21.90;41.00;;;;;;5014901;28;20029;-62
2023/05/27 12:35:49;;;;;;;3.90;2.20;;;21.90;39.60;;;;;;5014664;28;20439;-62
2023/05/27 12:38:15;;;;;;;5.60;1.88;;;21.90;41.30;;;;;;5013802;28;20037;-62
2023/05/27 12:40:41;;;;;;;1.63;1.42;;;21.90;41.20;;;;;;5021437;28;20044;-61
2023/05/27 12:43:06;;;;;;;2.53;1.40;;;21.90;40.00;;;;;;5000907;28;20037;-62
2023/05/27 12:45:32;;;;;;;2.38;1.20;;;22.00;40.00;;;;;;5017627;28;20033;-62
2023/05/27 12:47:59;;;;;;;2.03;1.30;;;22.00;39.90;;;;;;5014550;28;20141;-62
2023/05/27 12:50:25;;;;;;;4.72;1.10;;;22.10;40.30;;;;;;5013482;28;20056;-62
2023/05/27 12:52:52;;;;;;;2.97;1.10;;;22.20;40.20;;;;;;5017404;28;20068;-62
2023/05/27 12:55:20;;;;;;;2.25;1.30;;;22.30;40.10;;;;;;4998685;28;20033;-62
2023/05/27 12:57:48;;;;;;;2.83;1.10;;;22.40;40.00;;;;;;5017091;28;20033;-62